createdAt,value
2018-12-02T00:00:49.115Z,1004.96
2018-12-02T00:01:49.092Z,1004.94
2018-12-02T00:02:49.082Z,1004.91
2018-12-02T00:03:49.079Z,1004.99
2018-12-02T00:04:49.078Z,1004.90
2018-12-02T00:05:49.050Z,1004.89
2018-12-02T00:06:49.058Z,1004.85
2018-12-02T00:07:49.029Z,1004.75
2018-12-02T00:08:49.018Z,1004.80
2018-12-02T00:09:49.022Z,1004.72
2018-12-02T00:10:48.997Z,1004.85
2018-12-02T00:11:48.987Z,1004.70
2018-12-02T00:12:48.978Z,1004.74
2018-12-02T00:13:48.970Z,1004.71
2018-12-02T00:14:48.965Z,1004.66
2018-12-02T00:15:48.937Z,1004.65
2018-12-02T00:16:48.937Z,1004.57
2018-12-02T00:17:48.949Z,1004.80
2018-12-02T00:18:48.897Z,1004.71
2018-12-02T00:19:48.971Z,1004.80
2018-12-02T00:20:48.896Z,1004.57
2018-12-02T00:21:48.884Z,1004.67
2018-12-02T00:22:48.872Z,1004.54
2018-12-02T00:23:48.854Z,1004.67
2018-12-02T00:24:48.838Z,1004.60
2018-12-02T00:25:48.876Z,1004.61
2018-12-02T00:26:48.822Z,1004.58
2018-12-02T00:27:48.810Z,1004.51
2018-12-02T00:28:48.804Z,1004.45
2018-12-02T00:29:48.808Z,1004.65
2018-12-02T00:30:48.799Z,1004.50
2018-12-02T00:31:48.762Z,1004.50
2018-12-02T00:32:48.774Z,1004.50
2018-12-02T00:33:48.748Z,1004.64
2018-12-02T00:34:48.734Z,1004.60
2018-12-02T00:35:48.735Z,1004.51
2018-12-02T00:36:48.758Z,1004.50
2018-12-02T00:37:48.701Z,1004.62
2018-12-02T00:38:48.700Z,1004.55
2018-12-02T00:39:48.678Z,1004.58
2018-12-02T00:40:48.696Z,1004.53
2018-12-02T00:41:48.661Z,1004.65
2018-12-02T00:42:48.662Z,1004.71
2018-12-02T00:43:48.639Z,1004.62
2018-12-02T00:44:48.634Z,1004.52
2018-12-02T00:45:48.642Z,1004.49
2018-12-02T00:46:48.603Z,1004.48
2018-12-02T00:47:48.590Z,1004.54
2018-12-02T00:48:48.577Z,1004.46
2018-12-02T00:49:48.569Z,1004.48
2018-12-02T00:50:48.581Z,1004.46
2018-12-02T00:51:48.545Z,1004.47
2018-12-02T00:52:48.543Z,1004.45
2018-12-02T00:53:48.521Z,1004.36
2018-12-02T00:54:48.518Z,1004.40
2018-12-02T00:55:48.511Z,1004.40
2018-12-02T00:56:48.515Z,1004.46
2018-12-02T00:57:48.507Z,1004.40
2018-12-02T00:58:48.467Z,1004.43
2018-12-02T00:59:48.472Z,1004.39
2018-12-02T01:00:48.466Z,1004.41
2018-12-02T01:01:48.445Z,1004.42
2018-12-02T01:02:48.429Z,1004.47
2018-12-02T01:03:48.421Z,1004.54
2018-12-02T01:04:48.398Z,1004.46
2018-12-02T01:05:48.427Z,1004.36
2018-12-02T01:06:53.411Z,1004.38
2018-12-02T01:07:49.359Z,1004.43
2018-12-02T01:08:48.359Z,1004.32
2018-12-02T01:09:48.355Z,1004.35
2018-12-02T01:10:48.353Z,1004.24
2018-12-02T01:11:48.345Z,1004.37
2018-12-02T01:12:48.316Z,1004.30
2018-12-02T01:13:48.344Z,1004.28
2018-12-02T01:14:48.292Z,1004.32
2018-12-02T01:15:48.286Z,1004.33
2018-12-02T01:16:48.294Z,1004.26
2018-12-02T01:17:48.268Z,1004.31
2018-12-02T01:18:48.261Z,1004.34
2018-12-02T01:19:48.240Z,1004.33
2018-12-02T01:20:48.231Z,1004.35
2018-12-02T01:21:48.253Z,1004.31
2018-12-02T01:22:48.215Z,1004.30
2018-12-02T01:23:48.198Z,1004.26
2018-12-02T01:24:48.200Z,1004.36
2018-12-02T01:25:48.173Z,1004.16
2018-12-02T01:26:48.973Z,1004.24
2018-12-02T01:27:48.148Z,1004.25
2018-12-02T01:28:48.160Z,1004.26
2018-12-02T01:29:48.141Z,1004.27
2018-12-02T01:30:48.124Z,1004.28
2018-12-02T01:31:48.128Z,1004.19
2018-12-02T01:32:48.112Z,1004.18
2018-12-02T01:33:48.093Z,1004.08
2018-12-02T01:34:48.081Z,1004.11
2018-12-02T01:35:48.070Z,1004.05
2018-12-02T01:36:48.087Z,1004.06
2018-12-02T01:37:48.043Z,1004.05
2018-12-02T01:38:48.032Z,1004.03
2018-12-02T01:39:48.017Z,1004.01
2018-12-02T01:40:48.008Z,1004.11
2018-12-02T01:41:48.015Z,1004.11
2018-12-02T01:42:47.987Z,1004.14
2018-12-02T01:43:47.988Z,1004.13
2018-12-02T01:44:47.976Z,1004.06
2018-12-02T01:45:47.950Z,1004.11
2018-12-02T01:46:47.992Z,1004.08
2018-12-02T01:47:47.928Z,1004.05
2018-12-02T01:48:47.929Z,1004.02
2018-12-02T01:49:47.911Z,1003.89
2018-12-02T01:50:47.902Z,1003.91
2018-12-02T01:51:47.905Z,1003.88
2018-12-02T01:52:47.887Z,1003.88
2018-12-02T01:53:47.861Z,1003.85
2018-12-02T01:54:47.863Z,1003.87
2018-12-02T01:55:47.855Z,1003.81
2018-12-02T01:56:47.845Z,1003.91
2018-12-02T01:57:47.834Z,1003.92
2018-12-02T01:58:47.825Z,1003.78
2018-12-02T01:59:47.797Z,1003.77
2018-12-02T02:00:47.787Z,1003.76
2018-12-02T02:01:47.771Z,1003.72
2018-12-02T02:02:47.791Z,1003.67
2018-12-02T02:03:47.761Z,1003.64
2018-12-02T02:04:47.757Z,1003.60
2018-12-02T02:05:47.744Z,1003.62
2018-12-02T02:06:47.721Z,1003.59
2018-12-02T02:07:47.731Z,1003.54
2018-12-02T02:08:47.700Z,1003.52
2018-12-02T02:09:47.690Z,1003.46
2018-12-02T02:10:47.693Z,1003.47
2018-12-02T02:11:47.681Z,1003.56
2018-12-02T02:12:47.669Z,1003.52
2018-12-02T02:13:47.641Z,1003.46
2018-12-02T02:14:47.634Z,1003.46
2018-12-02T02:15:47.668Z,1003.29
2018-12-02T02:16:47.610Z,1003.35
2018-12-02T02:17:47.617Z,1003.28
2018-12-02T02:18:47.599Z,1003.29
2018-12-02T02:19:47.578Z,1003.37
2018-12-02T02:20:47.576Z,1003.34
2018-12-02T02:21:47.565Z,1003.25
2018-12-02T02:22:47.561Z,1003.28
2018-12-02T02:23:47.531Z,1003.30
2018-12-02T02:24:47.541Z,1003.34
2018-12-02T02:25:47.518Z,1003.23
2018-12-02T02:26:47.496Z,1003.20
2018-12-02T02:27:47.516Z,1003.28
2018-12-02T02:28:47.490Z,1003.15
2018-12-02T02:29:47.475Z,1003.19
2018-12-02T02:30:47.470Z,1003.25
2018-12-02T02:31:47.456Z,1003.22
2018-12-02T02:32:47.454Z,1003.25
2018-12-02T02:33:47.425Z,1003.29
2018-12-02T02:34:47.414Z,1003.27
2018-12-02T02:35:47.417Z,1003.22
2018-12-02T02:36:47.393Z,1003.20
2018-12-02T02:37:47.415Z,1003.32
2018-12-02T02:38:47.372Z,1003.26
2018-12-02T02:39:47.366Z,1003.27
2018-12-02T02:40:47.353Z,1003.26
2018-12-02T02:41:47.352Z,1003.23
2018-12-02T02:42:47.353Z,1003.18
2018-12-02T02:43:47.318Z,1003.17
2018-12-02T02:44:47.306Z,1003.16
2018-12-02T02:45:47.302Z,1003.23
2018-12-02T02:46:47.283Z,1003.24
2018-12-02T02:47:47.282Z,1003.24
2018-12-02T02:48:47.272Z,1003.19
2018-12-02T02:49:47.248Z,1003.06
2018-12-02T02:50:47.237Z,1002.98
2018-12-02T02:51:47.232Z,1002.95
2018-12-02T02:52:47.240Z,1002.90
2018-12-02T02:53:47.217Z,1002.85
2018-12-02T02:54:47.220Z,1002.72
2018-12-02T02:55:47.179Z,1002.85
2018-12-02T02:56:47.177Z,1002.76
2018-12-02T02:57:47.215Z,1002.65
2018-12-02T02:58:47.155Z,1002.73
2018-12-02T02:59:47.144Z,1002.66
2018-12-02T03:00:47.134Z,1002.55
2018-12-02T03:01:47.121Z,1002.55
2018-12-02T03:02:47.136Z,1002.57
2018-12-02T03:03:47.109Z,1002.53
2018-12-02T03:04:47.114Z,1002.47
2018-12-02T03:05:47.093Z,1002.64
2018-12-02T03:06:47.063Z,1002.62
2018-12-02T03:07:47.101Z,1002.68
2018-12-02T03:08:47.050Z,1002.60
2018-12-02T03:09:47.036Z,1002.70
2018-12-02T03:10:47.027Z,1002.62
2018-12-02T03:11:47.024Z,1002.50
2018-12-02T03:12:47.017Z,1002.44
2018-12-02T03:13:47.010Z,1002.48
2018-12-02T03:14:46.980Z,1002.46
2018-12-02T03:15:46.991Z,1002.53
2018-12-02T03:16:46.954Z,1002.52
2018-12-02T03:17:46.967Z,1002.47
2018-12-02T03:18:46.941Z,1002.47
2018-12-02T03:19:46.918Z,1002.43
2018-12-02T03:20:46.919Z,1002.48
2018-12-02T03:21:46.904Z,1002.41
2018-12-02T03:22:46.902Z,1002.41
2018-12-02T03:23:46.891Z,1002.40
2018-12-02T03:24:46.880Z,1002.43
2018-12-02T03:25:46.862Z,1002.35
2018-12-02T03:26:46.857Z,1002.43
2018-12-02T03:27:46.864Z,1002.41
2018-12-02T03:28:46.842Z,1002.41
2018-12-02T03:29:46.813Z,1002.37
2018-12-02T03:30:46.805Z,1002.42
2018-12-02T03:31:46.814Z,1002.29
2018-12-02T03:32:46.789Z,1002.36
2018-12-02T03:33:46.781Z,1002.47
2018-12-02T03:34:46.754Z,1002.35
2018-12-02T03:35:46.748Z,1002.34
2018-12-02T03:36:46.760Z,1002.47
2018-12-02T03:37:46.726Z,1002.37
2018-12-02T03:38:46.730Z,1002.30
2018-12-02T03:39:46.700Z,1002.26
2018-12-02T03:40:46.695Z,1002.25
2018-12-02T03:41:46.679Z,1002.15
2018-12-02T03:42:46.666Z,1002.20
2018-12-02T03:43:46.677Z,1002.21
2018-12-02T03:44:46.650Z,1002.17
2018-12-02T03:45:46.649Z,1002.09
2018-12-02T03:46:46.621Z,1002.09
2018-12-02T03:47:46.615Z,1002.06
2018-12-02T03:48:46.630Z,1002.01
2018-12-02T03:49:46.595Z,1002.00
2018-12-02T03:50:46.588Z,1001.91
2018-12-02T03:51:46.574Z,1001.98
2018-12-02T03:52:46.564Z,1001.96
2018-12-02T03:53:46.558Z,1001.91
2018-12-02T03:54:46.539Z,1001.96
2018-12-02T03:55:46.526Z,1001.89
2018-12-02T03:56:46.517Z,1002.00
2018-12-02T03:57:46.504Z,1001.98
2018-12-02T03:58:46.508Z,1001.86
2018-12-02T03:59:46.481Z,1002.08
2018-12-02T04:00:46.474Z,1002.09
2018-12-02T04:01:46.464Z,1002.09
2018-12-02T04:02:46.473Z,1001.93
2018-12-02T04:03:46.477Z,1001.87
2018-12-02T04:04:46.429Z,1001.92
2018-12-02T04:05:46.420Z,1001.91
2018-12-02T04:06:46.410Z,1001.89
2018-12-02T04:07:46.405Z,1001.93
2018-12-02T04:08:46.373Z,1001.84
2018-12-02T04:09:46.384Z,1001.92
2018-12-02T04:10:46.355Z,1001.79
2018-12-02T04:11:46.358Z,1001.81
2018-12-02T04:12:46.339Z,1001.82
2018-12-02T04:13:46.320Z,1001.84
2018-12-02T04:14:46.327Z,1001.76
2018-12-02T04:15:46.308Z,1001.78
2018-12-02T04:16:46.292Z,1001.82
2018-12-02T04:17:46.289Z,1001.80
2018-12-02T04:18:46.268Z,1001.77
2018-12-02T04:19:46.287Z,1001.70
2018-12-02T04:20:46.253Z,1001.60
2018-12-02T04:21:46.229Z,1001.69
2018-12-02T04:22:46.237Z,1001.60
2018-12-02T04:23:46.214Z,1001.56
2018-12-02T04:24:46.225Z,1001.68
2018-12-02T04:25:46.187Z,1001.58
2018-12-02T04:26:46.188Z,1001.75
2018-12-02T04:27:46.186Z,1001.61
2018-12-02T04:28:46.163Z,1001.72
2018-12-02T04:29:46.168Z,1001.52
2018-12-02T04:30:46.148Z,1001.48
2018-12-02T04:31:46.136Z,1001.52
2018-12-02T04:32:46.115Z,1001.55
2018-12-02T04:33:46.104Z,1001.50
2018-12-02T04:34:46.123Z,1001.47
2018-12-02T04:35:46.078Z,1001.47
2018-12-02T04:36:46.075Z,1001.47
2018-12-02T04:37:46.057Z,1001.37
2018-12-02T04:38:46.058Z,1001.32
2018-12-02T04:39:46.054Z,1001.30
2018-12-02T04:40:46.031Z,1001.22
2018-12-02T04:41:46.025Z,1001.31
2018-12-02T04:42:46.002Z,1001.22
2018-12-02T04:43:45.995Z,1001.05
2018-12-02T04:44:45.994Z,1001.02
2018-12-02T04:45:45.962Z,1000.99
2018-12-02T04:46:45.956Z,1001.08
2018-12-02T04:47:45.945Z,1000.93
2018-12-02T04:48:45.947Z,1001.09
2018-12-02T04:49:45.943Z,1000.98
2018-12-02T04:50:45.916Z,1000.96
2018-12-02T04:51:45.902Z,1000.96
2018-12-02T04:52:45.896Z,1000.87
2018-12-02T04:53:45.895Z,1000.80
2018-12-02T04:54:45.895Z,1000.88
2018-12-02T04:55:45.863Z,1000.95
2018-12-02T04:56:45.847Z,1000.78
2018-12-02T04:57:45.839Z,1000.84
2018-12-02T04:58:45.817Z,1000.80
2018-12-02T04:59:45.815Z,1000.72
2018-12-02T05:00:45.819Z,1000.77
2018-12-02T05:01:45.797Z,1000.66
2018-12-02T05:02:45.785Z,1000.78
2018-12-02T05:03:45.776Z,1000.71
2018-12-02T05:04:45.803Z,1000.65
2018-12-02T05:05:45.766Z,1000.58
2018-12-02T05:06:45.742Z,1000.66
2018-12-02T05:07:45.735Z,1000.64
2018-12-02T05:08:45.720Z,1000.65
2018-12-02T05:09:45.713Z,1000.49
2018-12-02T05:10:45.707Z,1000.50
2018-12-02T05:11:45.685Z,1000.47
2018-12-02T05:12:45.675Z,1000.58
2018-12-02T05:13:45.662Z,1000.57
2018-12-02T05:14:45.663Z,1000.49
2018-12-02T05:15:45.649Z,1000.60
2018-12-02T05:16:45.637Z,1000.49
2018-12-02T05:17:45.621Z,1000.55
2018-12-02T05:18:45.612Z,1000.52
2018-12-02T05:19:45.599Z,1000.51
2018-12-02T05:20:45.606Z,1000.44
2018-12-02T05:21:45.585Z,1000.43
2018-12-02T05:22:45.559Z,1000.47
2018-12-02T05:23:45.563Z,1000.61
2018-12-02T05:24:45.559Z,1000.61
2018-12-02T05:25:45.544Z,1000.53
2018-12-02T05:26:45.525Z,1000.58
2018-12-02T05:27:45.509Z,1000.59
2018-12-02T05:28:45.550Z,1000.53
2018-12-02T05:29:45.502Z,1000.53
2018-12-02T05:30:45.495Z,1000.49
2018-12-02T05:31:45.471Z,1000.60
2018-12-02T05:32:45.454Z,1000.52
2018-12-02T05:33:45.447Z,1000.48
2018-12-02T05:34:45.435Z,1000.52
2018-12-02T05:35:45.438Z,1000.50
2018-12-02T05:36:45.414Z,1000.51
2018-12-02T05:37:45.401Z,1000.50
2018-12-02T05:38:45.386Z,1000.47
2018-12-02T05:39:45.388Z,1000.48
2018-12-02T05:40:45.382Z,1000.56
2018-12-02T05:41:45.357Z,1000.52
2018-12-02T05:42:45.345Z,1000.60
2018-12-02T05:43:45.341Z,1000.60
2018-12-02T05:44:45.320Z,1000.51
2018-12-02T05:45:45.324Z,1000.61
2018-12-02T05:46:45.304Z,1000.57
2018-12-02T05:47:45.281Z,1000.58
2018-12-02T05:48:45.276Z,1000.47
2018-12-02T05:49:45.265Z,1000.42
2018-12-02T05:50:45.276Z,1000.36
2018-12-02T05:51:45.246Z,1000.39
2018-12-02T05:52:45.234Z,1000.39
2018-12-02T05:53:45.224Z,1000.30
2018-12-02T05:54:45.218Z,1000.37
2018-12-02T05:55:45.209Z,1000.35
2018-12-02T05:56:45.191Z,1000.26
2018-12-02T05:57:45.178Z,1000.43
2018-12-02T05:58:45.165Z,1000.32
2018-12-02T05:59:45.165Z,1000.14
2018-12-02T06:00:45.161Z,1000.16
2018-12-02T06:01:45.135Z,1000.16
2018-12-02T06:02:45.117Z,1000.17
2018-12-02T06:03:45.120Z,1000.13
2018-12-02T06:04:45.106Z,1000.06
2018-12-02T06:05:45.105Z,1000.03
2018-12-02T06:06:45.077Z,1000.01
2018-12-02T06:07:45.072Z,999.99
2018-12-02T06:08:45.056Z,999.97
2018-12-02T06:09:45.042Z,1000.00
2018-12-02T06:10:45.053Z,1000.08
2018-12-02T06:11:45.021Z,1000.10
2018-12-02T06:12:45.006Z,1000.06
2018-12-02T06:13:45.006Z,999.94
2018-12-02T06:14:44.997Z,999.97
2018-12-02T06:15:44.972Z,1000.08
2018-12-02T06:16:44.983Z,999.91
2018-12-02T06:17:44.968Z,999.97
2018-12-02T06:18:44.949Z,999.88
2018-12-02T06:19:44.926Z,999.90
2018-12-02T06:20:44.924Z,999.91
2018-12-02T06:21:44.918Z,999.82
2018-12-02T06:22:44.897Z,999.84
2018-12-02T06:23:44.877Z,999.84
2018-12-02T06:24:44.879Z,1000.00
2018-12-02T06:25:46.610Z,999.99
2018-12-02T06:26:44.876Z,1000.01
2018-12-02T06:27:44.853Z,1000.02
2018-12-02T06:28:44.833Z,1000.09
2018-12-02T06:29:44.831Z,1000.02
2018-12-02T06:30:44.809Z,1000.02
2018-12-02T06:31:44.815Z,1000.06
2018-12-02T06:32:44.786Z,1000.06
2018-12-02T06:33:44.780Z,1000.05
2018-12-02T06:34:44.759Z,1000.12
2018-12-02T06:35:44.766Z,1000.11
2018-12-02T06:36:44.759Z,1000.08
2018-12-02T06:37:44.734Z,1000.30
2018-12-02T06:38:44.725Z,1000.12
2018-12-02T06:39:44.727Z,1000.11
2018-12-02T06:40:44.699Z,1000.10
2018-12-02T06:41:44.707Z,1000.25
2018-12-02T06:42:44.687Z,1000.24
2018-12-02T06:43:44.679Z,1000.10
2018-12-02T06:44:44.647Z,1000.17
2018-12-02T06:45:44.643Z,1000.12
2018-12-02T06:46:44.644Z,999.94
2018-12-02T06:47:44.622Z,999.94
2018-12-02T06:48:44.614Z,999.97
2018-12-02T06:49:44.595Z,999.96
2018-12-02T06:50:44.593Z,999.83
2018-12-02T06:51:44.586Z,999.84
2018-12-02T06:52:44.564Z,999.99
2018-12-02T06:53:44.561Z,999.88
2018-12-02T06:54:44.544Z,1000.08
2018-12-02T06:55:44.527Z,1000.01
2018-12-02T06:56:44.546Z,999.98
2018-12-02T06:57:44.512Z,999.99
2018-12-02T06:58:44.502Z,1000.05
2018-12-02T06:59:44.490Z,1000.09
2018-12-02T07:00:44.471Z,1000.09
2018-12-02T07:01:44.464Z,1000.10
2018-12-02T07:02:44.468Z,1000.01
2018-12-02T07:03:44.456Z,999.97
2018-12-02T07:04:44.447Z,1000.10
2018-12-02T07:05:44.442Z,999.95
2018-12-02T07:06:44.406Z,999.93
2018-12-02T07:07:44.414Z,999.79
2018-12-02T07:08:44.388Z,999.77
2018-12-02T07:09:44.382Z,999.91
2018-12-02T07:10:44.375Z,999.78
2018-12-02T07:11:44.343Z,999.79
2018-12-02T07:12:44.362Z,999.74
2018-12-02T07:13:44.330Z,999.80
2018-12-02T07:14:44.352Z,999.85
2018-12-02T07:15:44.310Z,999.84
2018-12-02T07:16:44.306Z,999.72
2018-12-02T07:17:44.304Z,999.65
2018-12-02T07:18:44.275Z,999.58
2018-12-02T07:19:44.262Z,999.49
2018-12-02T07:20:44.263Z,999.48
2018-12-02T07:21:44.258Z,999.61
2018-12-02T07:22:44.253Z,999.65
2018-12-02T07:23:44.224Z,999.53
2018-12-02T07:24:44.199Z,999.49
2018-12-02T07:25:44.188Z,999.53
2018-12-02T07:26:44.178Z,999.51
2018-12-02T07:27:44.209Z,999.63
2018-12-02T07:28:44.178Z,999.56
2018-12-02T07:29:44.149Z,999.43
2018-12-02T07:30:44.140Z,999.66
2018-12-02T07:31:44.156Z,999.43
2018-12-02T07:32:44.128Z,999.41
2018-12-02T07:33:44.102Z,999.36
2018-12-02T07:34:44.119Z,999.29
2018-12-02T07:35:44.076Z,999.23
2018-12-02T07:36:44.072Z,999.24
2018-12-02T07:37:44.086Z,999.25
2018-12-02T07:38:44.054Z,999.22
2018-12-02T07:39:44.078Z,999.22
2018-12-02T07:40:44.036Z,999.22
2018-12-02T07:41:44.016Z,999.10
2018-12-02T07:42:44.046Z,999.18
2018-12-02T07:43:44.011Z,999.05
2018-12-02T07:44:44.015Z,999.18
2018-12-02T07:45:43.964Z,999.03
2018-12-02T07:46:43.960Z,999.03
2018-12-02T07:47:43.954Z,999.04
2018-12-02T07:48:43.965Z,999.16
2018-12-02T07:49:43.931Z,998.97
2018-12-02T07:50:43.923Z,999.09
2018-12-02T07:51:43.917Z,999.13
2018-12-02T07:52:43.894Z,998.97
2018-12-02T07:53:43.919Z,998.98
2018-12-02T07:54:43.878Z,998.90
2018-12-02T07:55:43.882Z,998.82
2018-12-02T07:56:43.855Z,998.75
2018-12-02T07:57:43.838Z,998.70
2018-12-02T07:58:43.839Z,998.76
2018-12-02T07:59:43.815Z,998.91
2018-12-02T08:00:43.816Z,998.81
2018-12-02T08:01:43.797Z,999.07
2018-12-02T08:02:43.783Z,999.03
2018-12-02T08:03:43.801Z,998.76
2018-12-02T08:04:43.759Z,998.69
2018-12-02T08:05:43.762Z,998.85
2018-12-02T08:06:43.765Z,998.73
2018-12-02T08:07:43.742Z,998.75
2018-12-02T08:08:43.742Z,998.79
2018-12-02T08:09:43.707Z,998.76
2018-12-02T08:10:43.695Z,998.74
2018-12-02T08:11:43.683Z,998.68
2018-12-02T08:12:43.672Z,998.77
2018-12-02T08:13:43.683Z,998.70
2018-12-02T08:14:43.647Z,998.68
2018-12-02T08:15:43.638Z,998.61
2018-12-02T08:16:43.632Z,998.71
2018-12-02T08:17:43.626Z,998.67
2018-12-02T08:18:43.620Z,998.59
2018-12-02T08:19:43.589Z,998.52
2018-12-02T08:20:43.578Z,998.57
2018-12-02T08:21:43.581Z,998.55
2018-12-02T08:22:43.564Z,998.60
2018-12-02T08:23:43.574Z,998.54
2018-12-02T08:24:43.536Z,998.69
2018-12-02T08:25:43.536Z,998.72
2018-12-02T08:26:43.536Z,998.64
2018-12-02T08:27:43.511Z,998.49
2018-12-02T08:28:43.522Z,998.53
2018-12-02T08:29:43.484Z,998.56
2018-12-02T08:30:43.478Z,998.53
2018-12-02T08:31:43.452Z,998.66
2018-12-02T08:32:43.463Z,998.56
2018-12-02T08:33:43.435Z,998.72
2018-12-02T08:34:43.435Z,998.57
2018-12-02T08:35:43.411Z,998.53
2018-12-02T08:36:43.401Z,998.53
2018-12-02T08:37:43.387Z,998.53
2018-12-02T08:38:43.376Z,998.58
2018-12-02T08:39:43.389Z,998.46
2018-12-02T08:40:43.351Z,998.42
2018-12-02T08:41:43.341Z,998.44
2018-12-02T08:42:43.335Z,998.45
2018-12-02T08:43:43.325Z,998.44
2018-12-02T08:44:43.335Z,998.38
2018-12-02T08:45:43.298Z,998.35
2018-12-02T08:46:43.289Z,998.29
2018-12-02T08:47:43.282Z,998.35
2018-12-02T08:48:43.277Z,998.44
2018-12-02T08:49:43.283Z,998.47
2018-12-02T08:50:43.244Z,998.41
2018-12-02T08:51:43.248Z,998.36
2018-12-02T08:52:43.237Z,998.41
2018-12-02T08:53:43.207Z,998.40
2018-12-02T08:54:43.229Z,998.40
2018-12-02T08:55:43.196Z,998.40
2018-12-02T08:56:43.169Z,998.40
2018-12-02T08:57:43.169Z,998.38
2018-12-02T08:58:43.152Z,998.29
2018-12-02T08:59:43.177Z,998.25
2018-12-02T09:00:43.133Z,998.27
2018-12-02T09:01:43.135Z,998.31
2018-12-02T09:02:43.114Z,998.19
2018-12-02T09:03:43.110Z,998.22
2018-12-02T09:04:43.101Z,998.37
2018-12-02T09:05:43.078Z,998.11
2018-12-02T09:06:43.063Z,998.17
2018-12-02T09:07:43.060Z,998.17
2018-12-02T09:08:43.048Z,998.14
2018-12-02T09:09:43.054Z,998.11
2018-12-02T09:10:43.029Z,998.15
2018-12-02T09:11:43.010Z,998.11
2018-12-02T09:12:43.002Z,998.13
2018-12-02T09:13:42.990Z,998.12
2018-12-02T09:14:42.993Z,998.11
2018-12-02T09:15:42.958Z,998.03
2018-12-02T09:16:42.968Z,998.05
2018-12-02T09:17:42.947Z,998.02
2018-12-02T09:18:42.926Z,998.00
2018-12-02T09:19:42.928Z,997.97
2018-12-02T09:20:42.958Z,997.98
2018-12-02T09:21:42.888Z,997.99
2018-12-02T09:22:42.886Z,997.97
2018-12-02T09:23:47.389Z,997.98
2018-12-02T09:24:42.895Z,997.92
2018-12-02T09:25:42.862Z,997.97
2018-12-02T09:26:42.842Z,998.07
2018-12-02T09:27:42.834Z,997.92
2018-12-02T09:28:42.817Z,998.00
2018-12-02T09:29:42.825Z,997.94
2018-12-02T09:30:42.803Z,997.90
2018-12-02T09:31:42.784Z,997.90
2018-12-02T09:32:42.774Z,997.98
2018-12-02T09:33:42.773Z,998.05
2018-12-02T09:34:42.755Z,997.75
2018-12-02T09:35:42.766Z,997.93
2018-12-02T09:36:42.739Z,997.91
2018-12-02T09:37:42.720Z,997.75
2018-12-02T09:38:42.708Z,997.78
2018-12-02T09:39:42.704Z,997.78
2018-12-02T09:40:42.697Z,997.63
2018-12-02T09:41:42.677Z,997.73
2018-12-02T09:42:42.660Z,997.82
2018-12-02T09:43:42.658Z,997.73
2018-12-02T09:44:42.632Z,997.72
2018-12-02T09:45:42.654Z,997.72
2018-12-02T09:46:42.618Z,997.61
2018-12-02T09:47:42.596Z,997.63
2018-12-02T09:48:42.601Z,997.58
2018-12-02T09:49:42.626Z,997.68
2018-12-02T09:50:42.582Z,997.62
2018-12-02T09:51:42.563Z,997.67
2018-12-02T09:52:42.556Z,997.53
2018-12-02T09:53:42.541Z,997.53
2018-12-02T09:54:42.534Z,997.44
2018-12-02T09:55:42.540Z,997.53
2018-12-02T09:56:42.515Z,997.39
2018-12-02T09:57:42.490Z,997.52
2018-12-02T09:58:42.489Z,997.43
2018-12-02T09:59:42.476Z,997.36
2018-12-02T10:00:42.477Z,997.45
2018-12-02T10:01:42.446Z,997.38
2018-12-02T10:02:42.444Z,997.35
2018-12-02T10:03:42.433Z,997.35
2018-12-02T10:04:42.418Z,997.42
2018-12-02T10:05:42.431Z,997.46
2018-12-02T10:06:42.400Z,997.45
2018-12-02T10:07:42.381Z,997.43
2018-12-02T10:08:42.386Z,997.30
2018-12-02T10:09:42.366Z,997.37
2018-12-02T10:10:42.374Z,997.44
2018-12-02T10:11:42.344Z,997.28
2018-12-02T10:12:42.323Z,997.29
2018-12-02T10:13:42.319Z,997.29
2018-12-02T10:14:42.310Z,997.22
2018-12-02T10:15:42.308Z,997.29
2018-12-02T10:16:42.294Z,997.32
2018-12-02T10:17:42.271Z,997.32
2018-12-02T10:18:42.266Z,997.22
2018-12-02T10:19:42.244Z,997.19
2018-12-02T10:20:42.292Z,997.16
2018-12-02T10:21:42.235Z,997.10
2018-12-02T10:22:42.209Z,997.13
2018-12-02T10:23:42.213Z,997.21
2018-12-02T10:24:42.186Z,997.14
2018-12-02T10:25:42.208Z,997.03
2018-12-02T10:26:42.189Z,997.05
2018-12-02T10:27:42.174Z,997.03
2018-12-02T10:28:42.152Z,997.04
2018-12-02T10:29:42.130Z,996.97
2018-12-02T10:30:42.175Z,996.98
2018-12-02T10:31:42.117Z,997.01
2018-12-02T10:32:42.113Z,997.09
2018-12-02T10:33:42.112Z,996.92
2018-12-02T10:34:42.102Z,996.99
2018-12-02T10:35:42.092Z,996.91
2018-12-02T10:36:42.052Z,997.06
2018-12-02T10:37:42.054Z,997.01
2018-12-02T10:38:42.048Z,997.02
2018-12-02T10:39:42.033Z,996.86
2018-12-02T10:40:42.025Z,996.78
2018-12-02T10:41:42.011Z,996.75
2018-12-02T10:42:41.989Z,996.77
2018-12-02T10:43:41.982Z,996.85
2018-12-02T10:44:41.981Z,996.73
2018-12-02T10:45:41.970Z,996.73
2018-12-02T10:46:44.080Z,996.64
2018-12-02T10:47:41.947Z,996.71
2018-12-02T10:48:41.934Z,996.69
2018-12-02T10:49:41.938Z,996.64
2018-12-02T10:50:41.924Z,996.66
2018-12-02T10:51:41.888Z,996.57
2018-12-02T10:52:41.886Z,996.65
2018-12-02T10:53:41.870Z,996.70
2018-12-02T10:54:41.862Z,996.60
2018-12-02T10:55:41.873Z,996.61
2018-12-02T10:56:41.842Z,996.69
2018-12-02T10:57:41.827Z,996.57
2018-12-02T10:58:41.824Z,996.46
2018-12-02T10:59:41.804Z,996.47
2018-12-02T11:00:41.843Z,996.40
2018-12-02T11:01:41.812Z,996.44
2018-12-02T11:02:41.779Z,996.38
2018-12-02T11:03:41.761Z,996.37
2018-12-02T11:04:41.739Z,996.49
2018-12-02T11:05:41.732Z,996.46
2018-12-02T11:06:41.739Z,996.44
2018-12-02T11:07:41.719Z,996.48
2018-12-02T11:08:41.706Z,996.37
2018-12-02T11:09:41.679Z,996.30
2018-12-02T11:10:41.674Z,996.31
2018-12-02T11:11:41.684Z,996.25
2018-12-02T11:12:41.675Z,996.31
2018-12-02T11:13:41.648Z,996.24
2018-12-02T11:14:41.633Z,996.29
2018-12-02T11:15:41.624Z,996.27
2018-12-02T11:16:41.624Z,996.15
2018-12-02T11:17:41.594Z,996.22
2018-12-02T11:18:41.598Z,996.18
2018-12-02T11:19:41.578Z,996.16
2018-12-02T11:20:41.598Z,996.11
2018-12-02T11:21:41.577Z,996.16
2018-12-02T11:22:41.538Z,996.16
2018-12-02T11:23:41.531Z,996.15
2018-12-02T11:24:41.530Z,996.25
2018-12-02T11:25:41.511Z,996.27
2018-12-02T11:26:41.524Z,996.11
2018-12-02T11:27:41.493Z,996.26
2018-12-02T11:28:41.489Z,996.12
2018-12-02T11:29:41.476Z,996.11
2018-12-02T11:30:41.448Z,996.07
2018-12-02T11:31:41.450Z,996.23
2018-12-02T11:32:41.440Z,996.08
2018-12-02T11:33:41.432Z,996.20
2018-12-02T11:34:41.402Z,996.16
2018-12-02T11:35:41.402Z,996.02
2018-12-02T11:37:02.404Z,996.00
2018-12-02T11:37:41.387Z,996.03
2018-12-02T11:38:41.361Z,995.93
2018-12-02T11:39:41.363Z,995.96
2018-12-02T11:40:41.351Z,996.07
2018-12-02T11:41:41.359Z,995.87
2018-12-02T11:42:41.332Z,995.89
2018-12-02T11:43:41.318Z,996.03
2018-12-02T11:44:41.311Z,995.98
2018-12-02T11:45:41.281Z,995.88
2018-12-02T11:46:41.281Z,995.91
2018-12-02T11:47:41.282Z,996.10
2018-12-02T11:48:41.272Z,996.03
2018-12-02T11:49:41.254Z,995.95
2018-12-02T11:50:41.237Z,995.89
2018-12-02T11:51:41.221Z,996.06
2018-12-02T11:52:41.232Z,996.05
2018-12-02T11:53:41.202Z,995.90
2018-12-02T11:54:41.201Z,995.90
2018-12-02T11:55:41.182Z,996.00
2018-12-02T11:56:41.169Z,995.88
2018-12-02T11:57:41.164Z,995.73
2018-12-02T11:58:41.144Z,995.86
2018-12-02T11:59:41.143Z,995.91
2018-12-02T12:00:41.132Z,995.80
2018-12-02T12:01:41.114Z,995.91
2018-12-02T12:02:41.129Z,995.79
2018-12-02T12:03:41.089Z,995.72
2018-12-02T12:04:41.079Z,995.73
2018-12-02T12:05:41.070Z,995.94
2018-12-02T12:06:41.096Z,995.82
2018-12-02T12:07:41.066Z,995.74
2018-12-02T12:08:41.050Z,995.77
2018-12-02T12:09:41.110Z,995.67
2018-12-02T12:10:41.015Z,995.71
2018-12-02T12:11:40.999Z,995.67
2018-12-02T12:12:41.003Z,995.65
2018-12-02T12:13:40.977Z,995.53
2018-12-02T12:14:40.974Z,995.50
2018-12-02T12:15:40.953Z,995.56